sensor_id;sensor_type;location;lat;lon;timestamp;P1;durP1;ratioP1;P2;durP2;ratioP2
21519;SDS011;10921;53.614;9.882;2022-12-18T00:03:32;72.47;;;33.28;;
21519;SDS011;10921;53.614;9.882;2022-12-18T00:06:00;69.88;;;32.53;;
21519;SDS011;10921;53.614;9.882;2022-12-18T00:08:26;58.92;;;32.17;;
21519;SDS011;10921;53.614;9.882;2022-12-18T00:10:54;54.70;;;30.65;;
21519;SDS011;10921;53.614;9.882;2022-12-18T00:13:24;60.30;;;33.17;;
21519;SDS011;10921;53.614;9.882;2022-12-18T00:15:53;59.25;;;32.22;;
21519;SDS011;10921;53.614;9.882;2022-12-18T00:18:21;58.35;;;31.60;;
21519;SDS011;10921;53.614;9.882;2022-12-18T00:20:48;57.10;;;34.33;;
21519;SDS011;10921;53.614;9.882;2022-12-18T00:23:14;56.78;;;30.73;;
21519;SDS011;10921;53.614;9.882;2022-12-18T00:25:41;51.35;;;29.02;;
21519;SDS011;10921;53.614;9.882;2022-12-18T00:28:07;57.13;;;31.58;;
21519;SDS011;10921;53.614;9.882;2022-12-18T00:30:33;51.90;;;29.75;;
21519;SDS011;10921;53.614;9.882;2022-12-18T00:33:00;53.90;;;29.98;;
21519;SDS011;10921;53.614;9.882;2022-12-18T00:35:26;55.25;;;31.35;;
21519;SDS011;10921;53.614;9.882;2022-12-18T00:37:53;59.22;;;30.60;;
21519;SDS011;10921;53.614;9.882;2022-12-18T00:40:19;53.35;;;30.05;;
21519;SDS011;10921;53.614;9.882;2022-12-18T00:42:46;65.57;;;32.83;;
21519;SDS011;10921;53.614;9.882;2022-12-18T00:45:28;60.28;;;31.92;;
21519;SDS011;10921;53.614;9.882;2022-12-18T00:47:56;51.28;;;30.08;;
21519;SDS011;10921;53.614;9.882;2022-12-18T00:50:24;55.40;;;31.30;;
21519;SDS011;10921;53.614;9.882;2022-12-18T00:52:51;50.78;;;29.38;;
21519;SDS011;10921;53.614;9.882;2022-12-18T00:55:18;51.55;;;28.77;;
21519;SDS011;10921;53.614;9.882;2022-12-18T00:57:44;52.35;;;28.92;;
21519;SDS011;10921;53.614;9.882;2022-12-18T01:00:12;60.45;;;30.40;;
21519;SDS011;10921;53.614;9.882;2022-12-18T01:02:40;49.65;;;30.38;;
21519;SDS011;10921;53.614;9.882;2022-12-18T01:05:08;62.45;;;30.83;;
21519;SDS011;10921;53.614;9.882;2022-12-18T01:07:35;53.97;;;29.60;;
21519;SDS011;10921;53.614;9.882;2022-12-18T01:10:03;50.08;;;30.52;;
21519;SDS011;10921;53.614;9.882;2022-12-18T01:12:30;49.45;;;30.33;;
21519;SDS011;10921;53.614;9.882;2022-12-18T01:14:57;59.85;;;31.33;;
21519;SDS011;10921;53.614;9.882;2022-12-18T01:17:23;63.83;;;30.25;;
21519;SDS011;10921;53.614;9.882;2022-12-18T01:19:50;55.80;;;29.95;;
21519;SDS011;10921;53.614;9.882;2022-12-18T01:22:16;59.15;;;30.88;;
21519;SDS011;10921;53.614;9.882;2022-12-18T01:24:42;53.03;;;30.15;;
21519;SDS011;10921;53.614;9.882;2022-12-18T01:27:09;52.55;;;29.55;;
21519;SDS011;10921;53.614;9.882;2022-12-18T01:29:35;47.88;;;26.70;;
21519;SDS011;10921;53.614;9.882;2022-12-18T01:32:02;49.58;;;30.17;;
21519;SDS011;10921;53.614;9.882;2022-12-18T01:34:28;56.80;;;30.17;;
21519;SDS011;10921;53.614;9.882;2022-12-18T01:36:55;50.88;;;29.35;;
21519;SDS011;10921;53.614;9.882;2022-12-18T01:39:21;56.33;;;29.65;;
21519;SDS011;10921;53.614;9.882;2022-12-18T01:41:48;57.63;;;32.72;;
21519;SDS011;10921;53.614;9.882;2022-12-18T01:50:15;50.38;;;28.30;;
21519;SDS011;10921;53.614;9.882;2022-12-18T01:52:45;58.60;;;30.38;;
21519;SDS011;10921;53.614;9.882;2022-12-18T01:57:42;49.25;;;27.58;;
21519;SDS011;10921;53.614;9.882;2022-12-18T02:00:13;57.08;;;28.08;;
21519;SDS011;10921;53.614;9.882;2022-12-18T02:02:43;53.13;;;28.70;;
21519;SDS011;10921;53.614;9.882;2022-12-18T02:05:11;51.67;;;28.20;;
21519;SDS011;10921;53.614;9.882;2022-12-18T02:13:20;44.60;;;28.15;;
21519;SDS011;10921;53.614;9.882;2022-12-18T02:16:08;50.00;;;30.20;;
21519;SDS011;10921;53.614;9.882;2022-12-18T02:18:56;57.67;;;29.40;;
21519;SDS011;10921;53.614;9.882;2022-12-18T02:24:35;59.90;;;29.00;;
21519;SDS011;10921;53.614;9.882;2022-12-18T02:27:18;52.90;;;29.80;;
21519;SDS011;10921;53.614;9.882;2022-12-18T02:29:52;47.15;;;27.50;;
21519;SDS011;10921;53.614;9.882;2022-12-18T02:32:25;46.55;;;27.95;;
21519;SDS011;10921;53.614;9.882;2022-12-18T02:37:22;51.05;;;28.58;;
21519;SDS011;10921;53.614;9.882;2022-12-18T02:39:52;52.15;;;29.13;;
21519;SDS011;10921;53.614;9.882;2022-12-18T02:42:21;49.47;;;29.17;;
21519;SDS011;10921;53.614;9.882;2022-12-18T02:44:49;56.83;;;27.83;;
21519;SDS011;10921;53.614;9.882;2022-12-18T02:47:17;57.65;;;29.80;;
21519;SDS011;10921;53.614;9.882;2022-12-18T02:52:57;48.78;;;27.10;;
21519;SDS011;10921;53.614;9.882;2022-12-18T03:01:09;53.28;;;28.98;;
21519;SDS011;10921;53.614;9.882;2022-12-18T03:03:44;52.28;;;29.75;;
21519;SDS011;10921;53.614;9.882;2022-12-18T03:06:21;49.35;;;29.92;;
21519;SDS011;10921;53.614;9.882;2022-12-18T03:08:56;55.63;;;29.65;;
21519;SDS011;10921;53.614;9.882;2022-12-18T03:11:25;46.55;;;28.35;;
21519;SDS011;10921;53.614;9.882;2022-12-18T03:14:13;46.05;;;27.48;;
21519;SDS011;10921;53.614;9.882;2022-12-18T03:16:42;41.65;;;26.83;;
21519;SDS011;10921;53.614;9.882;2022-12-18T03:19:11;44.30;;;27.48;;
21519;SDS011;10921;53.614;9.882;2022-12-18T03:21:45;53.45;;;28.10;;
21519;SDS011;10921;53.614;9.882;2022-12-18T03:24:15;55.83;;;28.23;;
21519;SDS011;10921;53.614;9.882;2022-12-18T03:26:46;56.95;;;29.33;;
21519;SDS011;10921;53.614;9.882;2022-12-18T03:29:18;42.78;;;26.25;;
21519;SDS011;10921;53.614;9.882;2022-12-18T03:31:49;56.60;;;28.92;;
21519;SDS011;10921;53.614;9.882;2022-12-18T03:34:26;46.90;;;27.10;;
21519;SDS011;10921;53.614;9.882;2022-12-18T03:36:55;44.60;;;27.58;;
21519;SDS011;10921;53.614;9.882;2022-12-18T03:39:22;56.38;;;28.50;;
21519;SDS011;10921;53.614;9.882;2022-12-18T03:50:15;50.55;;;27.80;;
21519;SDS011;10921;53.614;9.882;2022-12-18T03:52:51;42.88;;;26.30;;
21519;SDS011;10921;53.614;9.882;2022-12-18T03:55:19;44.95;;;27.25;;
21519;SDS011;10921;53.614;9.882;2022-12-18T03:57:48;48.58;;;27.98;;
21519;SDS011;10921;53.614;9.882;2022-12-18T04:00:16;47.05;;;27.25;;
21519;SDS011;10921;53.614;9.882;2022-12-18T04:02:48;53.45;;;29.05;;
21519;SDS011;10921;53.614;9.882;2022-12-18T04:05:19;48.63;;;28.35;;
21519;SDS011;10921;53.614;9.882;2022-12-18T04:07:47;53.65;;;28.92;;
21519;SDS011;10921;53.614;9.882;2022-12-18T04:10:16;44.95;;;29.25;;
21519;SDS011;10921;53.614;9.882;2022-12-18T04:12:43;46.03;;;28.02;;
21519;SDS011;10921;53.614;9.882;2022-12-18T04:15:10;51.25;;;28.83;;
21519;SDS011;10921;53.614;9.882;2022-12-18T04:17:38;52.10;;;29.40;;
21519;SDS011;10921;53.614;9.882;2022-12-18T04:20:06;46.67;;;29.17;;
21519;SDS011;10921;53.614;9.882;2022-12-18T04:22:33;53.30;;;28.75;;
21519;SDS011;10921;53.614;9.882;2022-12-18T04:24:59;47.20;;;26.88;;
21519;SDS011;10921;53.614;9.882;2022-12-18T04:27:26;53.72;;;29.13;;
21519;SDS011;10921;53.614;9.882;2022-12-18T04:29:52;42.75;;;27.45;;
21519;SDS011;10921;53.614;9.882;2022-12-18T04:32:19;47.28;;;27.05;;
21519;SDS011;10921;53.614;9.882;2022-12-18T04:34:45;46.22;;;26.45;;
21519;SDS011;10921;53.614;9.882;2022-12-18T04:37:12;41.55;;;25.73;;
21519;SDS011;10921;53.614;9.882;2022-12-18T04:39:38;47.25;;;28.25;;
21519;SDS011;10921;53.614;9.882;2022-12-18T04:42:05;53.30;;;26.38;;
21519;SDS011;10921;53.614;9.882;2022-12-18T04:44:31;49.95;;;26.23;;
21519;SDS011;10921;53.614;9.882;2022-12-18T04:46:58;41.53;;;25.02;;
21519;SDS011;10921;53.614;9.882;2022-12-18T04:49:24;44.38;;;26.08;;
21519;SDS011;10921;53.614;9.882;2022-12-18T04:51:51;44.92;;;27.52;;
21519;SDS011;10921;53.614;9.882;2022-12-18T04:54:19;44.28;;;25.50;;
21519;SDS011;10921;53.614;9.882;2022-12-18T04:56:46;42.20;;;25.10;;
21519;SDS011;10921;53.614;9.882;2022-12-18T04:59:12;42.95;;;25.70;;
21519;SDS011;10921;53.614;9.882;2022-12-18T05:01:39;46.20;;;26.25;;
21519;SDS011;10921;53.614;9.882;2022-12-18T05:04:06;44.72;;;26.98;;
21519;SDS011;10921;53.614;9.882;2022-12-18T05:06:32;51.58;;;26.83;;
21519;SDS011;10921;53.614;9.882;2022-12-18T05:08:59;48.30;;;27.27;;
21519;SDS011;10921;53.614;9.882;2022-12-18T05:11:25;42.95;;;24.83;;
21519;SDS011;10921;53.614;9.882;2022-12-18T05:13:52;44.45;;;25.98;;
21519;SDS011;10921;53.614;9.882;2022-12-18T05:16:18;46.45;;;25.10;;
21519;SDS011;10921;53.614;9.882;2022-12-18T05:18:45;40.58;;;25.67;;
21519;SDS011;10921;53.614;9.882;2022-12-18T05:21:11;49.30;;;25.90;;
21519;SDS011;10921;53.614;9.882;2022-12-18T05:23:38;42.08;;;26.25;;
21519;SDS011;10921;53.614;9.882;2022-12-18T05:26:05;44.72;;;26.55;;
21519;SDS011;10921;53.614;9.882;2022-12-18T05:28:33;56.47;;;29.55;;
21519;SDS011;10921;53.614;9.882;2022-12-18T05:31:01;52.90;;;29.00;;
21519;SDS011;10921;53.614;9.882;2022-12-18T05:33:31;49.90;;;25.08;;
21519;SDS011;10921;53.614;9.882;2022-12-18T05:36:00;48.38;;;25.75;;
21519;SDS011;10921;53.614;9.882;2022-12-18T05:38:31;51.70;;;28.33;;
21519;SDS011;10921;53.614;9.882;2022-12-18T05:40:59;44.30;;;27.90;;
21519;SDS011;10921;53.614;9.882;2022-12-18T05:43:26;53.53;;;29.70;;
21519;SDS011;10921;53.614;9.882;2022-12-18T05:45:53;47.10;;;28.73;;
21519;SDS011;10921;53.614;9.882;2022-12-18T05:48:23;48.47;;;28.30;;
21519;SDS011;10921;53.614;9.882;2022-12-18T05:50:50;48.10;;;29.00;;
21519;SDS011;10921;53.614;9.882;2022-12-18T05:53:17;46.90;;;27.35;;
21519;SDS011;10921;53.614;9.882;2022-12-18T05:55:46;45.15;;;27.67;;
21519;SDS011;10921;53.614;9.882;2022-12-18T05:58:13;46.38;;;28.85;;
21519;SDS011;10921;53.614;9.882;2022-12-18T06:00:41;50.28;;;29.33;;
21519;SDS011;10921;53.614;9.882;2022-12-18T06:03:10;46.63;;;26.77;;
21519;SDS011;10921;53.614;9.882;2022-12-18T06:05:39;45.40;;;29.10;;
21519;SDS011;10921;53.614;9.882;2022-12-18T06:08:10;44.85;;;26.73;;
21519;SDS011;10921;53.614;9.882;2022-12-18T06:10:38;42.67;;;29.33;;
21519;SDS011;10921;53.614;9.882;2022-12-18T06:13:06;46.58;;;28.13;;
21519;SDS011;10921;53.614;9.882;2022-12-18T06:15:35;51.15;;;28.33;;
21519;SDS011;10921;53.614;9.882;2022-12-18T06:18:02;61.50;;;30.63;;
21519;SDS011;10921;53.614;9.882;2022-12-18T06:20:29;53.28;;;31.02;;
21519;SDS011;10921;53.614;9.882;2022-12-18T06:22:59;52.38;;;29.23;;
21519;SDS011;10921;53.614;9.882;2022-12-18T06:25:25;48.92;;;30.40;;
21519;SDS011;10921;53.614;9.882;2022-12-18T06:27:52;48.13;;;29.13;;
21519;SDS011;10921;53.614;9.882;2022-12-18T06:30:19;44.92;;;29.40;;
21519;SDS011;10921;53.614;9.882;2022-12-18T06:32:45;50.40;;;30.30;;
21519;SDS011;10921;53.614;9.882;2022-12-18T06:35:21;46.85;;;29.08;;
21519;SDS011;10921;53.614;9.882;2022-12-18T06:37:48;50.95;;;28.90;;
21519;SDS011;10921;53.614;9.882;2022-12-18T06:40:14;55.17;;;30.38;;
21519;SDS011;10921;53.614;9.882;2022-12-18T06:42:40;51.20;;;28.23;;
21519;SDS011;10921;53.614;9.882;2022-12-18T06:45:07;50.47;;;28.98;;
21519;SDS011;10921;53.614;9.882;2022-12-18T06:47:34;56.47;;;28.92;;
21519;SDS011;10921;53.614;9.882;2022-12-18T06:50:00;59.85;;;30.52;;
21519;SDS011;10921;53.614;9.882;2022-12-18T06:52:27;48.55;;;30.58;;
21519;SDS011;10921;53.614;9.882;2022-12-18T06:54:53;48.63;;;28.73;;
21519;SDS011;10921;53.614;9.882;2022-12-18T06:57:20;49.40;;;29.73;;
21519;SDS011;10921;53.614;9.882;2022-12-18T06:59:47;48.08;;;28.25;;
21519;SDS011;10921;53.614;9.882;2022-12-18T07:02:13;50.08;;;28.88;;
21519;SDS011;10921;53.614;9.882;2022-12-18T07:04:40;52.00;;;28.77;;
21519;SDS011;10921;53.614;9.882;2022-12-18T07:07:06;47.67;;;27.30;;
21519;SDS011;10921;53.614;9.882;2022-12-18T07:09:33;47.50;;;28.45;;
21519;SDS011;10921;53.614;9.882;2022-12-18T07:11:59;49.63;;;29.35;;
21519;SDS011;10921;53.614;9.882;2022-12-18T07:14:26;54.03;;;30.10;;
21519;SDS011;10921;53.614;9.882;2022-12-18T07:16:53;41.17;;;26.55;;
21519;SDS011;10921;53.614;9.882;2022-12-18T07:19:20;45.47;;;27.52;;
21519;SDS011;10921;53.614;9.882;2022-12-18T07:21:46;47.38;;;26.27;;
21519;SDS011;10921;53.614;9.882;2022-12-18T07:24:13;44.95;;;26.50;;
21519;SDS011;10921;53.614;9.882;2022-12-18T07:26:39;51.35;;;29.10;;
21519;SDS011;10921;53.614;9.882;2022-12-18T07:29:06;48.83;;;26.83;;
21519;SDS011;10921;53.614;9.882;2022-12-18T07:31:32;52.53;;;27.98;;
21519;SDS011;10921;53.614;9.882;2022-12-18T07:33:59;42.22;;;26.80;;
21519;SDS011;10921;53.614;9.882;2022-12-18T07:36:25;44.00;;;24.63;;
21519;SDS011;10921;53.614;9.882;2022-12-18T07:38:52;46.42;;;28.02;;
21519;SDS011;10921;53.614;9.882;2022-12-18T07:41:19;42.97;;;26.55;;
21519;SDS011;10921;53.614;9.882;2022-12-18T07:43:46;43.97;;;26.92;;
21519;SDS011;10921;53.614;9.882;2022-12-18T07:46:13;47.38;;;27.52;;
21519;SDS011;10921;53.614;9.882;2022-12-18T07:48:42;40.85;;;27.77;;
21519;SDS011;10921;53.614;9.882;2022-12-18T07:51:11;45.75;;;27.40;;
21519;SDS011;10921;53.614;9.882;2022-12-18T07:53:38;44.38;;;26.17;;
21519;SDS011;10921;53.614;9.882;2022-12-18T07:56:07;49.13;;;27.40;;
21519;SDS011;10921;53.614;9.882;2022-12-18T07:58:54;46.03;;;27.27;;
21519;SDS011;10921;53.614;9.882;2022-12-18T08:01:21;40.83;;;26.88;;
21519;SDS011;10921;53.614;9.882;2022-12-18T08:03:47;44.90;;;26.75;;
21519;SDS011;10921;53.614;9.882;2022-12-18T08:06:15;46.75;;;27.65;;
21519;SDS011;10921;53.614;9.882;2022-12-18T08:08:42;43.75;;;27.10;;
21519;SDS011;10921;53.614;9.882;2022-12-18T08:11:09;42.58;;;24.30;;
21519;SDS011;10921;53.614;9.882;2022-12-18T08:13:35;51.13;;;26.77;;
21519;SDS011;10921;53.614;9.882;2022-12-18T08:16:03;45.38;;;25.63;;
21519;SDS011;10921;53.614;9.882;2022-12-18T08:18:32;51.47;;;27.90;;
21519;SDS011;10921;53.614;9.882;2022-12-18T08:21:09;44.95;;;27.55;;
21519;SDS011;10921;53.614;9.882;2022-12-18T08:23:37;45.70;;;25.23;;
21519;SDS011;10921;53.614;9.882;2022-12-18T08:26:17;44.33;;;27.35;;
21519;SDS011;10921;53.614;9.882;2022-12-18T08:28:44;43.15;;;26.88;;
21519;SDS011;10921;53.614;9.882;2022-12-18T08:31:11;50.58;;;27.98;;
21519;SDS011;10921;53.614;9.882;2022-12-18T08:33:38;45.78;;;27.25;;
21519;SDS011;10921;53.614;9.882;2022-12-18T08:36:06;44.00;;;25.67;;
21519;SDS011;10921;53.614;9.882;2022-12-18T08:38:34;41.50;;;26.00;;
21519;SDS011;10921;53.614;9.882;2022-12-18T08:41:09;46.65;;;27.92;;
21519;SDS011;10921;53.614;9.882;2022-12-18T08:43:37;40.22;;;27.13;;
21519;SDS011;10921;53.614;9.882;2022-12-18T08:46:23;55.83;;;28.67;;
21519;SDS011;10921;53.614;9.882;2022-12-18T08:48:54;49.10;;;28.73;;
21519;SDS011;10921;53.614;9.882;2022-12-18T08:51:22;51.58;;;28.98;;
21519;SDS011;10921;53.614;9.882;2022-12-18T08:53:48;65.18;;;29.13;;
21519;SDS011;10921;53.614;9.882;2022-12-18T08:56:15;43.72;;;27.17;;
21519;SDS011;10921;53.614;9.882;2022-12-18T08:58:42;52.72;;;28.85;;
21519;SDS011;10921;53.614;9.882;2022-12-18T09:01:09;53.60;;;29.40;;
21519;SDS011;10921;53.614;9.882;2022-12-18T09:03:37;47.05;;;28.00;;
21519;SDS011;10921;53.614;9.882;2022-12-18T09:06:05;43.17;;;26.98;;
21519;SDS011;10921;53.614;9.882;2022-12-18T09:08:35;43.78;;;26.45;;
21519;SDS011;10921;53.614;9.882;2022-12-18T09:11:03;44.00;;;27.23;;
21519;SDS011;10921;53.614;9.882;2022-12-18T09:13:29;51.58;;;29.45;;
21519;SDS011;10921;53.614;9.882;2022-12-18T09:15:56;42.40;;;26.23;;
21519;SDS011;10921;53.614;9.882;2022-12-18T09:18:23;47.08;;;28.75;;
21519;SDS011;10921;53.614;9.882;2022-12-18T09:20:50;41.67;;;26.08;;
21519;SDS011;10921;53.614;9.882;2022-12-18T09:23:18;45.65;;;28.33;;
21519;SDS011;10921;53.614;9.882;2022-12-18T09:25:45;44.22;;;27.90;;
21519;SDS011;10921;53.614;9.882;2022-12-18T09:28:13;48.67;;;27.77;;
21519;SDS011;10921;53.614;9.882;2022-12-18T09:30:41;46.95;;;27.67;;
21519;SDS011;10921;53.614;9.882;2022-12-18T09:33:10;43.72;;;27.48;;
21519;SDS011;10921;53.614;9.882;2022-12-18T09:35:37;48.25;;;27.65;;
21519;SDS011;10921;53.614;9.882;2022-12-18T09:38:04;43.65;;;26.13;;
21519;SDS011;10921;53.614;9.882;2022-12-18T09:40:35;43.53;;;25.50;;
21519;SDS011;10921;53.614;9.882;2022-12-18T09:43:06;47.45;;;26.55;;
21519;SDS011;10921;53.614;9.882;2022-12-18T09:45:47;41.40;;;25.13;;
21519;SDS011;10921;53.614;9.882;2022-12-18T09:48:23;44.13;;;26.27;;
21519;SDS011;10921;53.614;9.882;2022-12-18T09:50:55;45.95;;;29.08;;
21519;SDS011;10921;53.614;9.882;2022-12-18T09:53:27;41.63;;;26.33;;
21519;SDS011;10921;53.614;9.882;2022-12-18T09:55:58;43.95;;;28.67;;
21519;SDS011;10921;53.614;9.882;2022-12-18T10:01:15;40.22;;;26.90;;
21519;SDS011;10921;53.614;9.882;2022-12-18T10:03:47;42.92;;;27.40;;
21519;SDS011;10921;53.614;9.882;2022-12-18T10:09:11;45.40;;;27.55;;
21519;SDS011;10921;53.614;9.882;2022-12-18T10:11:56;46.83;;;28.08;;
21519;SDS011;10921;53.614;9.882;2022-12-18T10:14:39;48.67;;;27.25;;
21519;SDS011;10921;53.614;9.882;2022-12-18T10:17:17;41.35;;;27.35;;
21519;SDS011;10921;53.614;9.882;2022-12-18T10:19:57;42.78;;;27.48;;
21519;SDS011;10921;53.614;9.882;2022-12-18T10:25:27;43.50;;;27.80;;
21519;SDS011;10921;53.614;9.882;2022-12-18T10:28:11;36.47;;;25.92;;
21519;SDS011;10921;53.614;9.882;2022-12-18T10:30:40;38.25;;;27.00;;
21519;SDS011;10921;53.614;9.882;2022-12-18T10:33:16;39.13;;;25.67;;
21519;SDS011;10921;53.614;9.882;2022-12-18T10:35:44;34.72;;;24.17;;
21519;SDS011;10921;53.614;9.882;2022-12-18T10:40:53;38.10;;;26.33;;
21519;SDS011;10921;53.614;9.882;2022-12-18T10:46:01;40.40;;;23.98;;
21519;SDS011;10921;53.614;9.882;2022-12-18T10:48:28;34.92;;;24.67;;
21519;SDS011;10921;53.614;9.882;2022-12-18T10:50:56;33.78;;;24.40;;
21519;SDS011;10921;53.614;9.882;2022-12-18T10:53:39;38.22;;;25.60;;
21519;SDS011;10921;53.614;9.882;2022-12-18T10:56:08;42.55;;;27.38;;
21519;SDS011;10921;53.614;9.882;2022-12-18T10:58:36;38.85;;;24.45;;
21519;SDS011;10921;53.614;9.882;2022-12-18T11:01:15;33.42;;;24.33;;
21519;SDS011;10921;53.614;9.882;2022-12-18T11:03:44;34.90;;;24.00;;
21519;SDS011;10921;53.614;9.882;2022-12-18T11:06:13;36.97;;;25.63;;
21519;SDS011;10921;53.614;9.882;2022-12-18T11:08:42;33.40;;;23.30;;
21519;SDS011;10921;53.614;9.882;2022-12-18T11:11:19;33.85;;;22.27;;
21519;SDS011;10921;53.614;9.882;2022-12-18T11:13:51;31.10;;;22.27;;
21519;SDS011;10921;53.614;9.882;2022-12-18T11:16:34;30.92;;;21.38;;
21519;SDS011;10921;53.614;9.882;2022-12-18T11:19:35;30.80;;;23.23;;
21519;SDS011;10921;53.614;9.882;2022-12-18T11:24:53;32.20;;;22.08;;
21519;SDS011;10921;53.614;9.882;2022-12-18T11:28:03;32.53;;;21.20;;
21519;SDS011;10921;53.614;9.882;2022-12-18T11:30:48;31.73;;;20.30;;
21519;SDS011;10921;53.614;9.882;2022-12-18T11:33:16;30.65;;;22.05;;
21519;SDS011;10921;53.614;9.882;2022-12-18T11:35:50;38.30;;;23.35;;
21519;SDS011;10921;53.614;9.882;2022-12-18T11:38:21;35.13;;;21.20;;
21519;SDS011;10921;53.614;9.882;2022-12-18T11:43:31;32.78;;;21.80;;
21519;SDS011;10921;53.614;9.882;2022-12-18T11:46:14;30.13;;;22.10;;
21519;SDS011;10921;53.614;9.882;2022-12-18T11:49:32;32.38;;;23.52;;
21519;SDS011;10921;53.614;9.882;2022-12-18T11:51:49;32.65;;;22.10;;
21519;SDS011;10921;53.614;9.882;2022-12-18T11:54:24;30.95;;;21.58;;
21519;SDS011;10921;53.614;9.882;2022-12-18T11:57:39;36.47;;;23.13;;
21519;SDS011;10921;53.614;9.882;2022-12-18T12:00:04;28.10;;;21.58;;
21519;SDS011;10921;53.614;9.882;2022-12-18T12:08:48;31.10;;;21.17;;
21519;SDS011;10921;53.614;9.882;2022-12-18T12:13:52;31.20;;;21.52;;
21519;SDS011;10921;53.614;9.882;2022-12-18T12:22:05;41.47;;;23.13;;
21519;SDS011;10921;53.614;9.882;2022-12-18T12:27:33;36.83;;;22.95;;
21519;SDS011;10921;53.614;9.882;2022-12-18T12:32:46;31.52;;;22.42;;
21519;SDS011;10921;53.614;9.882;2022-12-18T12:35:34;36.13;;;22.17;;
21519;SDS011;10921;53.614;9.882;2022-12-18T12:38:21;32.38;;;22.85;;
21519;SDS011;10921;53.614;9.882;2022-12-18T12:40:59;36.50;;;23.88;;
21519;SDS011;10921;53.614;9.882;2022-12-18T12:46:16;33.90;;;22.35;;
21519;SDS011;10921;53.614;9.882;2022-12-18T12:48:47;36.78;;;23.45;;
21519;SDS011;10921;53.614;9.882;2022-12-18T12:54:01;34.80;;;22.40;;
21519;SDS011;10921;53.614;9.882;2022-12-18T12:59:47;31.17;;;22.17;;
21519;SDS011;10921;53.614;9.882;2022-12-18T13:05:10;31.60;;;22.70;;
21519;SDS011;10921;53.614;9.882;2022-12-18T13:07:50;37.05;;;23.33;;
21519;SDS011;10921;53.614;9.882;2022-12-18T13:10:28;33.65;;;24.90;;
21519;SDS011;10921;53.614;9.882;2022-12-18T13:25:55;42.13;;;25.13;;
21519;SDS011;10921;53.614;9.882;2022-12-18T13:31:09;39.15;;;23.83;;
21519;SDS011;10921;53.614;9.882;2022-12-18T13:33:40;42.72;;;25.65;;
21519;SDS011;10921;53.614;9.882;2022-12-18T13:36:29;41.17;;;25.52;;
21519;SDS011;10921;53.614;9.882;2022-12-18T13:44:32;39.40;;;24.40;;
21519;SDS011;10921;53.614;9.882;2022-12-18T13:47:51;35.75;;;24.17;;
21519;SDS011;10921;53.614;9.882;2022-12-18T13:50:00;44.78;;;26.95;;
21519;SDS011;10921;53.614;9.882;2022-12-18T13:52:36;40.33;;;23.70;;
21519;SDS011;10921;53.614;9.882;2022-12-18T13:55:07;36.13;;;24.47;;
21519;SDS011;10921;53.614;9.882;2022-12-18T13:57:42;44.45;;;26.67;;
21519;SDS011;10921;53.614;9.882;2022-12-18T14:00:19;45.95;;;27.50;;
21519;SDS011;10921;53.614;9.882;2022-12-18T14:02:51;42.75;;;26.58;;
21519;SDS011;10921;53.614;9.882;2022-12-18T14:05:28;46.28;;;26.52;;
21519;SDS011;10921;53.614;9.882;2022-12-18T14:08:08;44.90;;;26.75;;
21519;SDS011;10921;53.614;9.882;2022-12-18T14:10:44;51.85;;;28.88;;
21519;SDS011;10921;53.614;9.882;2022-12-18T14:13:18;50.80;;;29.60;;
21519;SDS011;10921;53.614;9.882;2022-12-18T14:15:49;54.95;;;30.02;;
21519;SDS011;10921;53.614;9.882;2022-12-18T14:20:58;60.25;;;31.58;;
21519;SDS011;10921;53.614;9.882;2022-12-18T14:23:35;66.78;;;33.65;;
21519;SDS011;10921;53.614;9.882;2022-12-18T14:26:24;54.73;;;29.77;;
21519;SDS011;10921;53.614;9.882;2022-12-18T14:28:57;58.58;;;30.80;;
21519;SDS011;10921;53.614;9.882;2022-12-18T14:31:28;62.03;;;32.47;;
21519;SDS011;10921;53.614;9.882;2022-12-18T14:33:56;64.25;;;31.23;;
21519;SDS011;10921;53.614;9.882;2022-12-18T14:36:24;59.70;;;32.63;;
21519;SDS011;10921;53.614;9.882;2022-12-18T14:38:53;57.33;;;30.25;;
21519;SDS011;10921;53.614;9.882;2022-12-18T14:41:20;61.00;;;31.38;;
21519;SDS011;10921;53.614;9.882;2022-12-18T14:43:49;58.83;;;31.00;;
21519;SDS011;10921;53.614;9.882;2022-12-18T14:46:36;62.40;;;32.13;;
21519;SDS011;10921;53.614;9.882;2022-12-18T14:49:31;60.08;;;32.45;;
21519;SDS011;10921;53.614;9.882;2022-12-18T14:52:02;56.67;;;29.92;;
21519;SDS011;10921;53.614;9.882;2022-12-18T14:54:33;58.53;;;31.60;;
21519;SDS011;10921;53.614;9.882;2022-12-18T14:57:04;66.28;;;33.17;;
21519;SDS011;10921;53.614;9.882;2022-12-18T15:00:04;65.38;;;33.70;;
21519;SDS011;10921;53.614;9.882;2022-12-18T15:02:32;60.75;;;29.95;;
21519;SDS011;10921;53.614;9.882;2022-12-18T15:07:41;59.92;;;29.67;;
21519;SDS011;10921;53.614;9.882;2022-12-18T15:10:11;67.85;;;34.47;;
21519;SDS011;10921;53.614;9.882;2022-12-18T15:12:49;63.15;;;33.05;;
21519;SDS011;10921;53.614;9.882;2022-12-18T15:15:43;62.75;;;33.35;;
21519;SDS011;10921;53.614;9.882;2022-12-18T15:18:15;69.07;;;33.95;;
21519;SDS011;10921;53.614;9.882;2022-12-18T15:23:18;66.68;;;33.38;;
21519;SDS011;10921;53.614;9.882;2022-12-18T15:25:54;74.18;;;34.55;;
21519;SDS011;10921;53.614;9.882;2022-12-18T15:28:24;67.72;;;33.58;;
21519;SDS011;10921;53.614;9.882;2022-12-18T15:31:02;66.80;;;32.97;;
21519;SDS011;10921;53.614;9.882;2022-12-18T15:33:30;73.63;;;33.15;;
21519;SDS011;10921;53.614;9.882;2022-12-18T15:36:00;70.93;;;33.00;;
21519;SDS011;10921;53.614;9.882;2022-12-18T15:38:28;76.95;;;37.15;;
21519;SDS011;10921;53.614;9.882;2022-12-18T15:40:55;77.32;;;34.80;;
21519;SDS011;10921;53.614;9.882;2022-12-18T15:43:23;73.53;;;36.00;;
21519;SDS011;10921;53.614;9.882;2022-12-18T15:46:10;76.97;;;35.45;;
21519;SDS011;10921;53.614;9.882;2022-12-18T15:48:46;67.07;;;35.00;;
21519;SDS011;10921;53.614;9.882;2022-12-18T15:51:21;73.30;;;35.22;;
21519;SDS011;10921;53.614;9.882;2022-12-18T15:53:51;83.60;;;37.05;;
21519;SDS011;10921;53.614;9.882;2022-12-18T15:56:20;81.07;;;37.08;;
21519;SDS011;10921;53.614;9.882;2022-12-18T15:59:23;68.70;;;35.70;;
21519;SDS011;10921;53.614;9.882;2022-12-18T16:01:50;79.78;;;36.22;;
21519;SDS011;10921;53.614;9.882;2022-12-18T16:04:19;75.15;;;36.92;;
21519;SDS011;10921;53.614;9.882;2022-12-18T16:06:48;75.82;;;34.72;;
21519;SDS011;10921;53.614;9.882;2022-12-18T16:09:34;73.25;;;37.22;;
21519;SDS011;10921;53.614;9.882;2022-12-18T16:12:01;63.10;;;33.45;;
21519;SDS011;10921;53.614;9.882;2022-12-18T16:14:29;78.57;;;38.17;;
21519;SDS011;10921;53.614;9.882;2022-12-18T16:16:56;76.65;;;35.35;;
21519;SDS011;10921;53.614;9.882;2022-12-18T16:19:25;76.30;;;36.30;;
21519;SDS011;10921;53.614;9.882;2022-12-18T16:21:52;73.05;;;36.72;;
21519;SDS011;10921;53.614;9.882;2022-12-18T16:24:22;76.45;;;35.92;;
21519;SDS011;10921;53.614;9.882;2022-12-18T16:26:53;82.47;;;37.10;;
21519;SDS011;10921;53.614;9.882;2022-12-18T16:29:21;85.53;;;34.97;;
21519;SDS011;10921;53.614;9.882;2022-12-18T16:31:56;77.30;;;35.03;;
21519;SDS011;10921;53.614;9.882;2022-12-18T16:34:25;79.20;;;34.40;;
21519;SDS011;10921;53.614;9.882;2022-12-18T16:36:58;73.93;;;36.78;;
21519;SDS011;10921;53.614;9.882;2022-12-18T16:39:34;68.88;;;33.42;;
21519;SDS011;10921;53.614;9.882;2022-12-18T16:42:03;63.78;;;33.42;;